Time;durP1;ratioP1;P1;durP2;ratioP2;P2;SDS_P1;SDS_P2;PMS_P1;PMS_P2;Temp;Humidity;BMP_temperature;BMP_pressure;BME280_temperature;BME280_humidity;BME280_pressure;Samples;Min_cycle;Max_cycle;Signal;HPM_P1;HPM_P2
2023/04/12 00:00:23;;;;;;;4.35;3.00;;;;;;;;;;10411580;28;20041;-61
2023/04/12 00:05:27;;;;;;;3.20;2.80;;;;;;;;;;10412115;28;20017;-61
2023/04/12 00:10:27;;;;;;;6.95;2.90;;;;;;;;;;10411923;28;20473;-61
2023/04/12 00:15:28;;;;;;;5.95;3.00;;;;;;;;;;10411670;28;20026;-61
2023/04/12 00:20:29;;;;;;;6.53;2.90;;;;;;;;;;10411501;28;20060;-61
2023/04/12 00:25:29;;;;;;;3.65;2.85;;;;;;;;;;10411486;28;20026;-61
2023/04/12 00:30:30;;;;;;;3.80;2.90;;;;;;;;;;10408348;28;20087;-61
2023/04/12 00:35:31;;;;;;;4.85;2.85;;;;;;;;;;10407760;28;20043;-61
2023/04/12 00:40:32;;;;;;;4.60;3.03;;;;;;;;;;10400423;28;20044;-61
2023/04/12 00:45:34;;;;;;;4.25;2.83;;;;;;;;;;10409724;28;20453;-61
2023/04/12 00:50:35;;;;;;;5.53;3.17;;;;;;;;;;10409044;28;20348;-60
2023/04/12 00:55:36;;;;;;;6.43;3.10;;;;;;;;;;10395829;28;20296;-62
2023/04/12 01:00:36;;;;;;;4.38;2.72;;;;;;;;;;10409393;28;20032;-61
2023/04/12 01:06:03;;;;;;;5.38;2.85;;;;;;;;;;10396241;28;20057;-61
2023/04/12 01:11:13;;;;;;;3.42;2.60;;;;;;;;;;10398086;28;20041;-62
2023/04/12 01:16:43;;;;;;;3.60;2.55;;;;;;;;;;10409242;28;20038;-61
2023/04/12 01:22:41;;;;;;;4.20;2.97;;;;;;;;;;10407586;28;20178;-59
2023/04/12 01:27:48;;;;;;;11.43;3.45;;;;;;;;;;10386482;28;20125;-61
2023/04/12 01:32:51;;;;;;;4.72;3.15;;;;;;;;;;10408050;28;20069;-62
2023/04/12 01:37:52;;;;;;;5.03;2.80;;;;;;;;;;10407703;28;20029;-61
2023/04/12 01:43:14;;;;;;;6.85;2.85;;;;;;;;;;10406046;28;20393;-61
2023/04/12 01:48:15;;;;;;;3.38;2.97;;;;;;;;;;10408162;28;20029;-60
2023/04/12 01:53:48;;;;;;;4.25;3.00;;;;;;;;;;10406220;28;20045;-60
2023/04/12 01:58:52;;;;;;;3.72;2.85;;;;;;;;;;10384787;28;20026;-60
2023/04/12 02:03:53;;;;;;;4.30;3.30;;;;;;;;;;10405548;28;20026;-61
2023/04/12 02:09:01;;;;;;;4.05;2.88;;;;;;;;;;10404443;28;20381;-60
2023/04/12 02:14:02;;;;;;;;;;;;;;;;;;10405360;28;20025;-61
2023/04/12 02:19:02;;;;;;;4.75;3.08;;;;;;;;;;10405391;28;19913;-61
2023/04/12 02:24:03;;;;;;;3.58;3.10;;;;;;;;;;10405553;28;20033;-61
2023/04/12 02:29:06;;;;;;;4.60;3.00;;;;;;;;;;10394780;28;20029;-60
2023/04/12 02:34:07;;;;;;;3.30;2.67;;;;;;;;;;10406015;28;20037;-60
2023/04/12 02:39:07;;;;;;;3.28;2.95;;;;;;;;;;10399972;28;20017;-61
2023/04/12 02:44:08;;;;;;;3.90;2.83;;;;;;;;;;10404670;28;20145;-61
2023/04/12 02:49:08;;;;;;;4.57;2.95;;;;;;;;;;10405323;28;20032;-61
2023/04/12 02:54:10;;;;;;;3.97;2.88;;;;;;;;;;10404360;28;20045;-60
2023/04/12 02:59:10;;;;;;;3.28;2.95;;;;;;;;;;10391577;28;20480;-59
2023/04/12 03:04:11;;;;;;;3.65;3.03;;;;;;;;;;10403796;28;20029;-61
2023/04/12 03:09:11;;;;;;;3.33;2.58;;;;;;;;;;10392793;28;20382;-60
2023/04/12 03:14:12;;;;;;;3.97;3.00;;;;;;;;;;10403587;28;20029;-61
2023/04/12 03:19:13;;;;;;;3.10;2.80;;;;;;;;;;10406847;28;20030;-60
2023/04/12 03:24:13;;;;;;;5.20;2.95;;;;;;;;;;10402274;28;20037;-61
2023/04/12 03:29:15;;;;;;;3.33;2.83;;;;;;;;;;10411941;28;20483;-61
2023/04/12 03:34:15;;;;;;;4.47;2.70;;;;;;;;;;10411801;28;20045;-60
2023/04/12 03:39:16;;;;;;;2.97;2.47;;;;;;;;;;10409180;28;20033;-61
2023/04/12 03:44:16;;;;;;;3.30;2.47;;;;;;;;;;10411463;28;20048;-61
2023/04/12 03:49:17;;;;;;;3.33;2.97;;;;;;;;;;10412020;28;20040;-61
2023/04/12 03:54:17;;;;;;;3.05;2.50;;;;;;;;;;10410319;28;20092;-61
2023/04/12 03:59:18;;;;;;;4.10;2.45;;;;;;;;;;10410802;28;20473;-60
2023/04/12 04:04:19;;;;;;;4.82;2.55;;;;;;;;;;10410836;28;20562;-61
2023/04/12 04:09:20;;;;;;;2.60;2.30;;;;;;;;;;10409760;28;20026;-60
2023/04/12 04:14:21;;;;;;;3.30;2.60;;;;;;;;;;10409987;28;20033;-61
2023/04/12 04:19:21;;;;;;;3.05;2.70;;;;;;;;;;10409588;28;20033;-59
2023/04/12 04:24:23;;;;;;;3.08;2.70;;;;;;;;;;10410986;28;20045;-61
2023/04/12 04:29:24;;;;;;;2.78;2.40;;;;;;;;;;10409358;28;20105;-60
2023/04/12 04:34:25;;;;;;;3.55;2.78;;;;;;;;;;10410181;28;20029;-61
2023/04/12 04:39:26;;;;;;;3.15;2.67;;;;;;;;;;10407219;28;20029;-60
2023/04/12 04:44:26;;;;;;;2.83;2.63;;;;;;;;;;10409478;28;20030;-61
2023/04/12 04:49:27;;;;;;;3.40;2.58;;;;;;;;;;10409418;28;20036;-61
2023/04/12 04:54:27;;;;;;;3.83;2.80;;;;;;;;;;10407645;28;20057;-61
2023/04/12 04:59:28;;;;;;;2.78;2.30;;;;;;;;;;10409004;28;20038;-61
2023/04/12 05:04:29;;;;;;;3.08;2.70;;;;;;;;;;10409429;28;20107;-61
2023/04/12 05:09:29;;;;;;;2.92;2.65;;;;;;;;;;10408715;28;20485;-60
2023/04/12 05:14:30;;;;;;;3.30;2.58;;;;;;;;;;10408444;28;20037;-60
2023/04/12 05:19:30;;;;;;;3.83;2.55;;;;;;;;;;10407936;28;20024;-61
2023/04/12 05:24:31;;;;;;;2.28;2.00;;;;;;;;;;10408220;28;20022;-61
2023/04/12 05:29:31;;;;;;;6.28;2.35;;;;;;;;;;10408306;28;20032;-61
2023/04/12 05:34:32;;;;;;;4.78;2.33;;;;;;;;;;10406589;28;20041;-61
2023/04/12 05:39:32;;;;;;;3.65;2.40;;;;;;;;;;10402045;28;20026;-61
2023/04/12 05:44:37;;;;;;;2.15;2.00;;;;;;;;;;10406047;28;20030;-61
2023/04/12 05:49:38;;;;;;;3.88;2.08;;;;;;;;;;10407901;28;20245;-61
2023/04/12 05:54:39;;;;;;;7.90;2.38;;;;;;;;;;10402960;28;20327;-60
2023/04/12 05:59:39;;;;;;;6.95;2.05;;;;;;;;;;10393096;28;20026;-61
2023/04/12 06:04:40;;;;;;;5.07;2.72;;;;;;;;;;10407015;28;20018;-61
2023/04/12 06:09:41;;;;;;;11.93;3.08;;;;;;;;;;10407169;28;20026;-61
2023/04/12 06:14:42;;;;;;;8.20;2.72;;;;;;;;;;10404660;28;20189;-61
2023/04/12 06:19:42;;;;;;;10.15;3.00;;;;;;;;;;10406014;28;20034;-61
2023/04/12 06:24:43;;;;;;;4.40;3.10;;;;;;;;;;10406375;28;20036;-61
2023/04/12 06:29:44;;;;;;;21.08;3.28;;;;;;;;;;10405060;28;20083;-61
2023/04/12 06:34:44;;;;;;;9.38;2.60;;;;;;;;;;10406186;28;21154;-59
2023/04/12 06:39:45;;;;;;;8.50;3.05;;;;;;;;;;10406472;28;20026;-61
2023/04/12 06:44:45;;;;;;;4.72;2.83;;;;;;;;;;10406085;28;20017;-61
2023/04/12 06:49:46;;;;;;;6.68;3.05;;;;;;;;;;10405422;28;20036;-60
2023/04/12 06:54:46;;;;;;;8.85;3.17;;;;;;;;;;10405522;28;20045;-61
2023/04/12 06:59:47;;;;;;;9.63;3.10;;;;;;;;;;10405035;28;20029;-60
2023/04/12 07:04:52;;;;;;;10.75;2.97;;;;;;;;;;10403495;28;20029;-61
2023/04/12 07:09:53;;;;;;;7.03;2.80;;;;;;;;;;10405030;28;20403;-61
2023/04/12 07:14:54;;;;;;;11.57;3.35;;;;;;;;;;10404157;28;20032;-61
2023/04/12 07:19:55;;;;;;;7.10;2.97;;;;;;;;;;10404288;28;20033;-61
2023/04/12 07:24:55;;;;;;;6.80;3.22;;;;;;;;;;10404662;28;20025;-60
2023/04/12 07:29:56;;;;;;;4.40;2.80;;;;;;;;;;10404940;28;20029;-60
2023/04/12 07:34:57;;;;;;;4.70;3.00;;;;;;;;;;10404596;28;20043;-60
2023/04/12 07:39:58;;;;;;;3.47;2.92;;;;;;;;;;10404040;28;20379;-60
2023/04/12 07:44:58;;;;;;;5.45;3.22;;;;;;;;;;10403918;28;20026;-61
2023/04/12 07:49:59;;;;;;;4.18;3.00;;;;;;;;;;10398422;28;20040;-59
2023/04/12 07:55:00;;;;;;;6.15;2.60;;;;;;;;;;10403747;28;20045;-59
2023/04/12 08:00:00;;;;;;;4.75;2.95;;;;;;;;;;10403231;28;20037;-61
2023/04/12 08:05:01;;;;;;;4.43;2.90;;;;;;;;;;10406082;28;20129;-59
2023/04/12 08:10:01;;;;;;;5.32;2.90;;;;;;;;;;10410488;28;20060;-58
2023/04/12 08:15:02;;;;;;;4.53;3.15;;;;;;;;;;10410572;28;20084;-59
2023/04/12 08:20:04;;;;;;;5.10;3.22;;;;;;;;;;10427601;28;20495;-59
2023/04/12 08:25:05;;;;;;;3.78;2.90;;;;;;;;;;10410260;28;20087;-58
2023/04/12 08:30:07;;;;;;;3.03;2.67;;;;;;;;;;10411526;28;20032;-59
2023/04/12 08:35:08;;;;;;;3.10;2.78;;;;;;;;;;10410206;28;20021;-59
2023/04/12 08:40:09;;;;;;;6.30;3.08;;;;;;;;;;10410316;28;20049;-58
2023/04/12 08:45:11;;;;;;;4.65;3.15;;;;;;;;;;10410242;28;20548;-61
2023/04/12 08:50:12;;;;;;;3.58;3.03;;;;;;;;;;10409906;28;20033;-60
2023/04/12 08:55:13;;;;;;;4.50;3.00;;;;;;;;;;10408753;28;20037;-59
2023/04/12 09:00:16;;;;;;;3.67;2.55;;;;;;;;;;10409430;28;20024;-59
2023/04/12 09:05:16;;;;;;;3.72;2.63;;;;;;;;;;10409957;28;20087;-60
2023/04/12 09:10:36;;;;;;;5.00;3.00;;;;;;;;;;10410246;28;20029;-61
2023/04/12 09:15:50;;;;;;;3.67;2.70;;;;;;;;;;10409240;28;20041;-61
2023/04/12 09:21:06;;;;;;;4.68;2.67;;;;;;;;;;10409138;28;20040;-61
2023/04/12 09:26:08;;;;;;;4.22;2.72;;;;;;;;;;10408723;28;20018;-58
2023/04/12 09:31:16;;;;;;;5.70;2.60;;;;;;;;;;10409119;28;20022;-59
2023/04/12 09:36:17;;;;;;;3.90;3.03;;;;;;;;;;10408687;28;20069;-59
2023/04/12 09:41:26;;;;;;;3.25;2.60;;;;;;;;;;10406010;28;20030;-59
2023/04/12 09:46:27;;;;;;;3.45;3.00;;;;;;;;;;10407221;28;20076;-59
2023/04/12 09:51:32;;;;;;;4.15;2.70;;;;;;;;;;10408058;28;20048;-58
2023/04/12 09:56:35;;;;;;;4.15;2.85;;;;;;;;;;10407024;28;20363;-59
2023/04/12 10:01:39;;;;;;;3.05;2.60;;;;;;;;;;10404819;28;20026;-59
2023/04/12 10:06:40;;;;;;;3.28;2.70;;;;;;;;;;10405965;28;20381;-60
2023/04/12 10:11:43;;;;;;;6.63;3.05;;;;;;;;;;10407145;28;20036;-58
2023/04/12 10:16:44;;;;;;;4.90;3.00;;;;;;;;;;10404997;28;20032;-61
2023/04/12 10:21:44;;;;;;;4.95;2.85;;;;;;;;;;10405253;28;20029;-58
2023/04/12 10:26:46;;;;;;;4.55;3.15;;;;;;;;;;10405346;28;20036;-59
2023/04/12 10:31:47;;;;;;;3.03;2.72;;;;;;;;;;10405042;28;20482;-59
2023/04/12 10:36:55;;;;;;;4.03;3.00;;;;;;;;;;10403162;28;20032;-60
2023/04/12 10:42:28;;;;;;;2.93;2.70;;;;;;;;;;10376723;28;20064;-58
2023/04/12 10:47:48;;;;;;;5.43;2.78;;;;;;;;;;10403336;28;20026;-61
2023/04/12 10:53:17;;;;;;;2.55;2.35;;;;;;;;;;10384231;28;20046;-62
2023/04/12 10:58:45;;;;;;;4.00;2.83;;;;;;;;;;10400010;28;20033;-59
2023/04/12 11:04:19;;;;;;;3.67;2.88;;;;;;;;;;10393955;28;20087;-62
2023/04/12 11:09:26;;;;;;;9.48;3.22;;;;;;;;;;10386120;28;20068;-63
2023/04/12 11:14:32;;;;;;;8.10;2.80;;;;;;;;;;10398846;28;20034;-61
2023/04/12 11:19:38;;;;;;;5.88;3.35;;;;;;;;;;10406851;28;20034;-62
2023/04/12 11:24:45;;;;;;;6.47;3.00;;;;;;;;;;10404317;28;20034;-61
2023/04/12 11:29:50;;;;;;;3.45;2.78;;;;;;;;;;10404753;28;20037;-59
2023/04/12 11:34:52;;;;;;;6.57;3.30;;;;;;;;;;10400261;28;20056;-61
2023/04/12 11:39:56;;;;;;;6.15;3.28;;;;;;;;;;10407538;28;20098;-62
2023/04/12 11:44:57;;;;;;;6.88;3.33;;;;;;;;;;10404756;28;20068;-62
2023/04/12 11:49:58;;;;;;;5.03;3.00;;;;;;;;;;10409032;28;20549;-61
2023/04/12 11:55:06;;;;;;;4.90;3.28;;;;;;;;;;10410041;28;20053;-58
2023/04/12 12:00:07;;;;;;;4.05;2.85;;;;;;;;;;10404856;28;20504;-61
2023/04/12 12:05:08;;;;;;;5.25;3.40;;;;;;;;;;10403955;28;20034;-60
2023/04/12 12:10:09;;;;;;;4.53;2.70;;;;;;;;;;10411328;28;20029;-60
2023/04/12 12:15:10;;;;;;;6.57;2.92;;;;;;;;;;10404640;28;20035;-60
2023/04/12 12:20:20;;;;;;;5.05;3.55;;;;;;;;;;10411258;28;20396;-59
2023/04/12 12:25:22;;;;;;;4.30;3.33;;;;;;;;;;10404162;28;20416;-61
2023/04/12 12:30:22;;;;;;;4.15;2.83;;;;;;;;;;10424063;28;20041;-58
2023/04/12 12:35:25;;;;;;;4.38;3.30;;;;;;;;;;10407741;28;20026;-58
2023/04/12 12:40:31;;;;;;;6.72;3.10;;;;;;;;;;10409383;28;20033;-59
2023/04/12 12:45:37;;;;;;;4.93;3.20;;;;;;;;;;10411552;28;20039;-59
2023/04/12 12:50:38;;;;;;;5.72;3.40;;;;;;;;;;10406754;28;20593;-63
2023/04/12 12:55:39;;;;;;;7.72;3.17;;;;;;;;;;10404133;28;20029;-65
2023/04/12 13:00:40;;;;;;;15.85;3.97;;;;;;;;;;10405796;28;20034;-63
2023/04/12 13:05:40;;;;;;;10.43;3.65;;;;;;;;;;10407311;28;20087;-63
2023/04/12 13:10:41;;;;;;;15.73;3.00;;;;;;;;;;10406572;28;20037;-61
2023/04/12 13:15:42;;;;;;;6.30;3.70;;;;;;;;;;10409439;28;20036;-63
2023/04/12 13:20:43;;;;;;;6.68;3.28;;;;;;;;;;10406258;28;20065;-63
2023/04/12 13:25:43;;;;;;;7.88;3.40;;;;;;;;;;10403284;28;20461;-61
2023/04/12 13:30:44;;;;;;;10.57;3.65;;;;;;;;;;10406516;28;20079;-61
2023/04/12 13:35:45;;;;;;;14.27;3.30;;;;;;;;;;10408025;28;20024;-61
2023/04/12 13:40:45;;;;;;;6.15;3.47;;;;;;;;;;10409430;28;20033;-61
2023/04/12 13:45:46;;;;;;;5.57;3.20;;;;;;;;;;10408873;28;20091;-63
2023/04/12 13:50:47;;;;;;;10.80;3.28;;;;;;;;;;10408031;28;20037;-61
2023/04/12 13:55:48;;;;;;;12.23;2.78;;;;;;;;;;10407727;28;20018;-63
2023/04/12 14:00:49;;;;;;;7.28;3.35;;;;;;;;;;10407099;28;20033;-62
2023/04/12 14:05:50;;;;;;;13.52;3.20;;;;;;;;;;10408429;28;20484;-63
2023/04/12 14:10:51;;;;;;;9.25;3.72;;;;;;;;;;10407708;28;20021;-62
2023/04/12 14:15:52;;;;;;;7.15;3.40;;;;;;;;;;10407496;28;20393;-61
2023/04/12 14:20:53;;;;;;;4.32;2.90;;;;;;;;;;10408275;28;20033;-63
2023/04/12 14:25:54;;;;;;;6.60;2.97;;;;;;;;;;10407759;28;20025;-64
2023/04/12 14:30:57;;;;;;;5.90;3.15;;;;;;;;;;10407133;28;20044;-63
2023/04/12 14:36:03;;;;;;;3.95;2.55;;;;;;;;;;10407208;28;20036;-63
2023/04/12 14:41:08;;;;;;;4.82;3.40;;;;;;;;;;10405519;28;20068;-63
2023/04/12 14:46:09;;;;;;;4.80;3.20;;;;;;;;;;10406499;28;20021;-63
2023/04/12 14:51:10;;;;;;;3.72;3.13;;;;;;;;;;10417824;23;20042;-50
2023/04/12 14:56:21;;;;;;;5.82;3.00;;;;;;;;;;10404278;28;20060;-50
2023/04/12 15:01:22;;;;;;;7.40;3.47;;;;;;;;;;10407129;28;20021;-51
2023/04/12 15:06:26;;;;;;;5.05;3.03;;;;;;;;;;10404437;28;20026;-51
2023/04/12 15:11:26;;;;;;;3.60;3.20;;;;;;;;;;10406460;28;20110;-57
2023/04/12 15:16:27;;;;;;;6.43;3.08;;;;;;;;;;10400034;28;20096;-52
2023/04/12 15:21:28;;;;;;;4.07;3.33;;;;;;;;;;10410371;28;20029;-50
2023/04/12 15:26:28;;;;;;;5.03;2.72;;;;;;;;;;10403130;28;20045;-52
2023/04/12 15:31:29;;;;;;;5.22;3.63;;;;;;;;;;10369658;28;20608;-50
2023/04/12 15:36:35;;;;;;;4.20;3.05;;;;;;;;;;10374116;28;20034;-50
2023/04/12 15:41:40;;;;;;;5.82;3.35;;;;;;;;;;10399251;28;20022;-53
2023/04/12 15:46:41;;;;;;;4.97;2.95;;;;;;;;;;10385867;28;20045;-50
2023/04/12 15:51:42;;;;;;;8.43;3.63;;;;;;;;;;10343519;28;20117;-52
2023/04/12 15:56:44;;;;;;;4.60;3.28;;;;;;;;;;10376730;28;20021;-56
2023/04/12 16:01:46;;;;;;;7.03;2.90;;;;;;;;;;10371517;28;20022;-55
2023/04/12 16:06:46;;;;;;;17.55;3.47;;;;;;;;;;10365554;28;20037;-56
2023/04/12 16:11:47;;;;;;;7.28;3.63;;;;;;;;;;10364087;28;20037;-54
2023/04/12 16:16:49;;;;;;;8.07;3.45;;;;;;;;;;10372321;28;20067;-49
2023/04/12 16:21:49;;;;;;;7.90;3.42;;;;;;;;;;10373570;28;20401;-51
2023/04/12 16:26:50;;;;;;;3.15;2.85;;;;;;;;;;10364157;28;20037;-50
2023/04/12 16:31:51;;;;;;;9.10;3.15;;;;;;;;;;10368255;28;20026;-59
2023/04/12 16:36:52;;;;;;;6.30;3.00;;;;;;;;;;10371317;28;20026;-59
2023/04/12 16:41:52;;;;;;;6.57;3.10;;;;;;;;;;10369572;28;20088;-50
2023/04/12 16:46:53;;;;;;;4.47;2.83;;;;;;;;;;10370410;28;20029;-50
2023/04/12 16:51:54;;;;;;;7.13;2.97;;;;;;;;;;10371870;28;20038;-56
2023/04/12 16:56:56;;;;;;;4.65;3.05;;;;;;;;;;10371305;28;20037;-47
2023/04/12 17:01:59;;;;;;;4.63;3.17;;;;;;;;;;10369873;28;20253;-51
2023/04/12 17:07:01;;;;;;;13.57;3.40;;;;;;;;;;10367277;28;20025;-59
2023/04/12 17:12:01;;;;;;;12.70;3.20;;;;;;;;;;10381216;28;20025;-51
2023/04/12 17:17:02;;;;;;;4.40;3.22;;;;;;;;;;10367638;28;20500;-56
2023/04/12 17:22:02;;;;;;;9.07;2.88;;;;;;;;;;10375075;28;20432;-59
2023/04/12 17:27:04;;;;;;;5.18;3.03;;;;;;;;;;10374633;28;20061;-57
2023/04/12 17:32:05;;;;;;;5.28;2.92;;;;;;;;;;10364504;28;20117;-60
2023/04/12 17:37:06;;;;;;;11.95;2.97;;;;;;;;;;10379342;28;20241;-58
2023/04/12 17:42:07;;;;;;;4.75;2.53;;;;;;;;;;10357139;28;20593;-50
2023/04/12 17:47:07;;;;;;;5.13;3.00;;;;;;;;;;10351084;28;20033;-49
2023/04/12 17:52:09;;;;;;;6.38;3.17;;;;;;;;;;10352081;28;20434;-57
2023/04/12 17:57:10;;;;;;;8.60;3.13;;;;;;;;;;10348526;28;20034;-57
2023/04/12 18:02:10;;;;;;;6.50;3.30;;;;;;;;;;10356709;28;20026;-50
2023/04/12 18:07:11;;;;;;;5.72;2.90;;;;;;;;;;10358552;28;20240;-52
2023/04/12 18:12:12;;;;;;;5.13;3.15;;;;;;;;;;10359713;28;20451;-48
2023/04/12 18:17:13;;;;;;;4.63;2.72;;;;;;;;;;10386459;28;20026;-51
2023/04/12 18:22:13;;;;;;;4.57;3.03;;;;;;;;;;10363895;28;20037;-46
2023/04/12 18:27:14;;;;;;;7.63;3.10;;;;;;;;;;10355225;28;20100;-52
2023/04/12 18:32:14;;;;;;;4.45;2.95;;;;;;;;;;10368042;28;20053;-47
2023/04/12 18:37:15;;;;;;;3.88;2.90;;;;;;;;;;10361397;28;20030;-52
2023/04/12 18:42:16;;;;;;;6.60;3.00;;;;;;;;;;10366768;28;20034;-47
2023/04/12 18:47:17;;;;;;;14.40;3.13;;;;;;;;;;10362800;28;20025;-51
2023/04/12 18:52:18;;;;;;;16.90;4.53;;;;;;;;;;10371921;28;20121;-52
2023/04/12 18:57:18;;;;;;;9.98;4.40;;;;;;;;;;10362292;28;20034;-51
2023/04/12 19:02:19;;;;;;;11.45;3.95;;;;;;;;;;10364869;28;20456;-51
2023/04/12 19:07:20;;;;;;;12.48;3.80;;;;;;;;;;10359310;28;20029;-51
2023/04/12 19:12:21;;;;;;;9.63;3.45;;;;;;;;;;10367073;28;20034;-48
2023/04/12 19:17:26;;;;;;;12.70;3.35;;;;;;;;;;10377923;28;20370;-48
2023/04/12 19:22:27;;;;;;;7.78;3.85;;;;;;;;;;10363618;28;20041;-50
2023/04/12 19:27:28;;;;;;;6.78;3.42;;;;;;;;;;10366492;28;20034;-52
2023/04/12 19:32:29;;;;;;;6.95;3.30;;;;;;;;;;10353920;28;20273;-51
2023/04/12 19:37:32;;;;;;;11.05;3.53;;;;;;;;;;10364858;28;20038;-52
2023/04/12 19:42:33;;;;;;;6.40;3.40;;;;;;;;;;10361399;28;20355;-52
2023/04/12 19:47:34;;;;;;;6.35;3.42;;;;;;;;;;10347561;28;20034;-51
2023/04/12 19:52:34;;;;;;;7.93;3.28;;;;;;;;;;10355218;28;20128;-50
2023/04/12 19:57:36;;;;;;;6.43;3.42;;;;;;;;;;10364361;28;20041;-51
2023/04/12 20:02:39;;;;;;;6.28;3.38;;;;;;;;;;10366226;28;20046;-52
2023/04/12 20:07:39;;;;;;;9.52;3.45;;;;;;;;;;10363818;28;20430;-51
2023/04/12 20:12:40;;;;;;;10.02;3.15;;;;;;;;;;10370910;28;20099;-51
2023/04/12 20:17:42;;;;;;;5.28;3.13;;;;;;;;;;10368962;28;20034;-51
2023/04/12 20:22:50;;;;;;;5.93;2.97;;;;;;;;;;10396859;28;20041;-50
2023/04/12 20:27:51;;;;;;;6.67;3.40;;;;;;;;;;10346095;28;20127;-52
2023/04/12 20:32:53;;;;;;;3.97;3.05;;;;;;;;;;10360691;28;20513;-50
2023/04/12 20:37:55;;;;;;;4.82;3.10;;;;;;;;;;10363112;28;20029;-49
2023/04/12 20:42:55;;;;;;;4.97;3.28;;;;;;;;;;10361895;28;20105;-50
2023/04/12 20:47:56;;;;;;;13.40;3.55;;;;;;;;;;10366747;28;20481;-51
2023/04/12 20:52:57;;;;;;;18.63;3.92;;;;;;;;;;10369918;28;20061;-51
2023/04/12 20:58:02;;;;;;;11.93;3.70;;;;;;;;;;10353206;28;20398;-53
2023/04/12 21:03:03;;;;;;;15.23;3.75;;;;;;;;;;10367350;28;20034;-49
2023/04/12 21:08:06;;;;;;;8.25;3.63;;;;;;;;;;10349652;28;20033;-55
2023/04/12 21:13:07;;;;;;;14.93;3.83;;;;;;;;;;10341381;28;20189;-51
2023/04/12 21:18:08;;;;;;;10.48;3.30;;;;;;;;;;10347586;28;20153;-50
2023/04/12 21:23:08;;;;;;;6.60;3.00;;;;;;;;;;10338925;28;20430;-50
2023/04/12 21:28:10;;;;;;;10.43;3.30;;;;;;;;;;10341433;28;20282;-54
2023/04/12 21:33:12;;;;;;;13.98;3.05;;;;;;;;;;10346571;28;20442;-50
2023/04/12 21:38:12;;;;;;;13.43;3.50;;;;;;;;;;10371037;28;20037;-55
2023/04/12 21:43:13;;;;;;;6.65;3.00;;;;;;;;;;10370240;28;20034;-49
2023/04/12 21:48:14;;;;;;;7.07;3.22;;;;;;;;;;10372650;28;20034;-55
2023/04/12 21:53:15;;;;;;;16.15;3.38;;;;;;;;;;10368712;28;20077;-55
2023/04/12 21:58:16;;;;;;;8.02;2.97;;;;;;;;;;10359928;28;20117;-56
2023/04/12 22:03:17;;;;;;;9.13;4.00;;;;;;;;;;10367375;28;20061;-53
2023/04/12 22:08:19;;;;;;;12.80;3.55;;;;;;;;;;10369692;28;20025;-52
2023/04/12 22:13:22;;;;;;;6.70;2.70;;;;;;;;;;10369080;28;20044;-52
2023/04/12 22:18:23;;;;;;;8.15;2.75;;;;;;;;;;10385598;28;20029;-52
2023/04/12 22:23:23;;;;;;;7.32;2.92;;;;;;;;;;10382250;28;20030;-54
2023/04/12 22:28:24;;;;;;;11.02;3.13;;;;;;;;;;10384768;28;20032;-51
2023/04/12 22:33:24;;;;;;;6.22;2.92;;;;;;;;;;10399625;28;20022;-52
2023/04/12 22:38:25;;;;;;;9.20;3.33;;;;;;;;;;10383194;28;20081;-50
2023/04/12 22:43:25;;;;;;;6.43;2.58;;;;;;;;;;10379139;28;20397;-52
2023/04/12 22:48:31;;;;;;;5.43;2.90;;;;;;;;;;10394837;28;20040;-50
2023/04/12 22:53:32;;;;;;;8.15;2.75;;;;;;;;;;10393083;28;20516;-53
2023/04/12 22:58:33;;;;;;;7.28;3.20;;;;;;;;;;10387188;28;20034;-51
2023/04/12 23:03:35;;;;;;;7.10;2.65;;;;;;;;;;10368112;28;20139;-52
2023/04/12 23:21:09;;;;;;;7.38;2.47;;;;;;;;;;10373785;28;20141;-55
2023/04/12 23:26:10;;;;;;;10.73;2.85;;;;;;;;;;10391621;28;20493;-52
2023/04/12 23:31:11;;;;;;;3.65;2.75;;;;;;;;;;10404343;28;20034;-51
2023/04/12 23:36:12;;;;;;;5.95;2.85;;;;;;;;;;10388493;28;20505;-49
2023/04/12 23:41:12;;;;;;;5.03;2.92;;;;;;;;;;10399084;28;20516;-53
2023/04/12 23:46:13;;;;;;;5.72;2.92;;;;;;;;;;10399628;28;20029;-49
2023/04/12 23:51:15;;;;;;;3.35;2.55;;;;;;;;;;10379827;28;20049;-51
2023/04/12 23:56:15;;;;;;;4.78;3.30;;;;;;;;;;10410004;28;20104;-50
